Donie, Texas
Current Conditions -  °F | °C
As of 1:55 PM on Saturday 20 Dec 2014 (Local Time) from KLXY Reporting Station
Overcast Overcast  
Wind Chill:   Ceiling: 800
Heat Index:   Visibility: 7mi
Dew Point:   Wind: 5mph
Humidity: 89%   Direction: 360°N
Pressure: 30.19"   Gusts: NA
Location:  31.48°N, 96.22°W
Report Text: KLXY 201955Z AUTO 36004KT 7SM OVC008 10/08 A3019 RMK AO2 T00950078
Loading
Personal Weather Stations






























Interactive Weather Map New forecast layout! Learn more

10-Day Weather Forecast

Advertisements
Track Severe Weather on mobile